sensor_id;sensor_type;location;lat;lon;timestamp;temperature;humidity
14733;DHT22;7457;50.960;6.830;2023-04-03T00:01:36;2.90;80.70
14733;DHT22;7457;50.960;6.830;2023-04-03T00:04:04;2.80;80.60
14733;DHT22;7457;50.960;6.830;2023-04-03T00:06:30;2.80;80.60
14733;DHT22;7457;50.960;6.830;2023-04-03T00:08:56;2.70;80.60
14733;DHT22;7457;50.960;6.830;2023-04-03T00:11:22;2.60;80.70
14733;DHT22;7457;50.960;6.830;2023-04-03T00:13:47;2.50;80.90
14733;DHT22;7457;50.960;6.830;2023-04-03T00:16:13;2.40;81.10
14733;DHT22;7457;50.960;6.830;2023-04-03T00:18:39;2.40;81.40
14733;DHT22;7457;50.960;6.830;2023-04-03T00:21:06;2.30;81.70
14733;DHT22;7457;50.960;6.830;2023-04-03T00:23:33;2.20;81.80
14733;DHT22;7457;50.960;6.830;2023-04-03T00:25:58;2.20;82.00
14733;DHT22;7457;50.960;6.830;2023-04-03T00:28:24;2.20;82.10
14733;DHT22;7457;50.960;6.830;2023-04-03T00:30:51;2.10;82.20
14733;DHT22;7457;50.960;6.830;2023-04-03T00:33:17;2.10;82.30
14733;DHT22;7457;50.960;6.830;2023-04-03T00:35:42;2.00;82.50
14733;DHT22;7457;50.960;6.830;2023-04-03T00:38:08;2.00;82.60
14733;DHT22;7457;50.960;6.830;2023-04-03T00:40:37;2.00;82.60
14733;DHT22;7457;50.960;6.830;2023-04-03T00:43:13;1.90;82.70
14733;DHT22;7457;50.960;6.830;2023-04-03T00:45:45;1.90;82.80
14733;DHT22;7457;50.960;6.830;2023-04-03T00:48:38;1.90;83.00
14733;DHT22;7457;50.960;6.830;2023-04-03T00:51:03;1.80;83.00
14733;DHT22;7457;50.960;6.830;2023-04-03T00:54:14;1.80;83.00
14733;DHT22;7457;50.960;6.830;2023-04-03T00:56:23;1.80;83.10
14733;DHT22;7457;50.960;6.830;2023-04-03T00:59:16;1.80;83.30
14733;DHT22;7457;50.960;6.830;2023-04-03T01:01:48;1.70;83.20
14733;DHT22;7457;50.960;6.830;2023-04-03T01:04:28;1.70;83.20
14733;DHT22;7457;50.960;6.830;2023-04-03T01:06:56;1.60;83.30
14733;DHT22;7457;50.960;6.830;2023-04-03T01:09:22;1.60;83.60
14733;DHT22;7457;50.960;6.830;2023-04-03T01:11:48;1.50;83.50
14733;DHT22;7457;50.960;6.830;2023-04-03T01:14:13;1.50;83.50
14733;DHT22;7457;50.960;6.830;2023-04-03T01:16:39;1.50;83.50
14733;DHT22;7457;50.960;6.830;2023-04-03T01:19:08;1.40;83.60
14733;DHT22;7457;50.960;6.830;2023-04-03T01:21:51;1.30;83.70
14733;DHT22;7457;50.960;6.830;2023-04-03T01:24:34;1.20;83.80
14733;DHT22;7457;50.960;6.830;2023-04-03T01:27:02;1.20;84.00
14733;DHT22;7457;50.960;6.830;2023-04-03T01:29:28;1.10;84.10
14733;DHT22;7457;50.960;6.830;2023-04-03T01:31:56;1.00;84.20
14733;DHT22;7457;50.960;6.830;2023-04-03T01:34:23;0.90;84.40
14733;DHT22;7457;50.960;6.830;2023-04-03T01:36:49;0.80;84.60
14733;DHT22;7457;50.960;6.830;2023-04-03T01:39:16;0.70;84.90
14733;DHT22;7457;50.960;6.830;2023-04-03T01:41:42;0.70;85.30
14733;DHT22;7457;50.960;6.830;2023-04-03T01:44:09;0.60;85.50
14733;DHT22;7457;50.960;6.830;2023-04-03T01:46:35;0.60;85.80
14733;DHT22;7457;50.960;6.830;2023-04-03T01:49:01;0.60;85.90
14733;DHT22;7457;50.960;6.830;2023-04-03T01:51:26;0.60;85.90
14733;DHT22;7457;50.960;6.830;2023-04-03T01:53:52;0.60;86.00
14733;DHT22;7457;50.960;6.830;2023-04-03T01:56:18;0.60;86.10
14733;DHT22;7457;50.960;6.830;2023-04-03T01:58:43;0.60;86.20
14733;DHT22;7457;50.960;6.830;2023-04-03T02:01:09;0.60;86.20
14733;DHT22;7457;50.960;6.830;2023-04-03T02:03:34;0.70;86.20
14733;DHT22;7457;50.960;6.830;2023-04-03T02:06:01;0.70;86.20
14733;DHT22;7457;50.960;6.830;2023-04-03T02:08:26;0.60;86.20
14733;DHT22;7457;50.960;6.830;2023-04-03T02:10:52;0.60;86.20
14733;DHT22;7457;50.960;6.830;2023-04-03T02:13:18;0.60;86.10
14733;DHT22;7457;50.960;6.830;2023-04-03T02:15:44;0.50;86.00
14733;DHT22;7457;50.960;6.830;2023-04-03T02:18:11;0.40;86.00
14733;DHT22;7457;50.960;6.830;2023-04-03T02:20:37;0.30;86.10
14733;DHT22;7457;50.960;6.830;2023-04-03T02:23:04;0.20;86.30
14733;DHT22;7457;50.960;6.830;2023-04-03T02:25:31;0.10;86.60
14733;DHT22;7457;50.960;6.830;2023-04-03T02:27:56;0.00;86.70
14733;DHT22;7457;50.960;6.830;2023-04-03T02:30:22;0.00;87.00
14733;DHT22;7457;50.960;6.830;2023-04-03T02:32:48;0.00;87.50
14733;DHT22;7457;50.960;6.830;2023-04-03T02:35:13;-0.10;87.50
14733;DHT22;7457;50.960;6.830;2023-04-03T02:37:39;-0.20;87.60
14733;DHT22;7457;50.960;6.830;2023-04-03T02:40:05;-0.20;87.70
14733;DHT22;7457;50.960;6.830;2023-04-03T02:42:31;-0.20;87.80
14733;DHT22;7457;50.960;6.830;2023-04-03T02:44:57;-0.30;88.00
14733;DHT22;7457;50.960;6.830;2023-04-03T02:47:22;-0.30;88.20
14733;DHT22;7457;50.960;6.830;2023-04-03T02:49:48;-0.30;88.30
14733;DHT22;7457;50.960;6.830;2023-04-03T02:52:14;-0.40;88.50
14733;DHT22;7457;50.960;6.830;2023-04-03T02:54:40;-0.40;88.60
14733;DHT22;7457;50.960;6.830;2023-04-03T02:57:06;-0.40;88.60
14733;DHT22;7457;50.960;6.830;2023-04-03T02:59:35;-0.40;88.80
14733;DHT22;7457;50.960;6.830;2023-04-03T03:02:01;-0.40;88.90
14733;DHT22;7457;50.960;6.830;2023-04-03T03:04:26;-0.40;89.00
14733;DHT22;7457;50.960;6.830;2023-04-03T03:06:52;-0.40;89.20
14733;DHT22;7457;50.960;6.830;2023-04-03T03:09:18;-0.40;89.30
14733;DHT22;7457;50.960;6.830;2023-04-03T03:11:44;-0.40;89.40
14733;DHT22;7457;50.960;6.830;2023-04-03T03:14:10;-0.30;89.40
14733;DHT22;7457;50.960;6.830;2023-04-03T03:16:35;-0.30;89.50
14733;DHT22;7457;50.960;6.830;2023-04-03T03:19:01;-0.30;89.60
14733;DHT22;7457;50.960;6.830;2023-04-03T03:21:27;-0.30;89.60
14733;DHT22;7457;50.960;6.830;2023-04-03T03:23:52;-0.30;89.60
14733;DHT22;7457;50.960;6.830;2023-04-03T03:26:18;-0.30;89.60
14733;DHT22;7457;50.960;6.830;2023-04-03T03:28:44;-0.30;89.60
14733;DHT22;7457;50.960;6.830;2023-04-03T03:31:10;-0.30;89.50
14733;DHT22;7457;50.960;6.830;2023-04-03T03:33:36;-0.30;89.50
14733;DHT22;7457;50.960;6.830;2023-04-03T03:36:01;-0.30;89.50
14733;DHT22;7457;50.960;6.830;2023-04-03T03:38:27;-0.40;89.60
14733;DHT22;7457;50.960;6.830;2023-04-03T03:40:53;-0.40;89.70
14733;DHT22;7457;50.960;6.830;2023-04-03T03:43:19;-0.40;89.80
14733;DHT22;7457;50.960;6.830;2023-04-03T03:45:50;-0.50;89.80
14733;DHT22;7457;50.960;6.830;2023-04-03T03:48:15;-0.50;89.90
14733;DHT22;7457;50.960;6.830;2023-04-03T03:50:41;-0.60;90.00
14733;DHT22;7457;50.960;6.830;2023-04-03T03:53:07;-0.60;90.10
14733;DHT22;7457;50.960;6.830;2023-04-03T03:55:33;-0.60;90.20
14733;DHT22;7457;50.960;6.830;2023-04-03T03:57:58;-0.60;90.30
14733;DHT22;7457;50.960;6.830;2023-04-03T04:00:26;-0.70;90.40
14733;DHT22;7457;50.960;6.830;2023-04-03T04:02:52;-0.70;90.40
14733;DHT22;7457;50.960;6.830;2023-04-03T04:05:18;-0.80;90.50
14733;DHT22;7457;50.960;6.830;2023-04-03T04:07:43;-0.80;90.60
14733;DHT22;7457;50.960;6.830;2023-04-03T04:10:09;-0.80;90.70
14733;DHT22;7457;50.960;6.830;2023-04-03T04:12:35;-0.90;90.70
14733;DHT22;7457;50.960;6.830;2023-04-03T04:15:01;-0.90;90.80
14733;DHT22;7457;50.960;6.830;2023-04-03T04:17:27;-0.90;90.90
14733;DHT22;7457;50.960;6.830;2023-04-03T04:19:53;-0.90;91.00
14733;DHT22;7457;50.960;6.830;2023-04-03T04:22:19;-0.90;91.10
14733;DHT22;7457;50.960;6.830;2023-04-03T04:24:44;-0.90;91.20
14733;DHT22;7457;50.960;6.830;2023-04-03T04:27:10;-0.90;91.30
14733;DHT22;7457;50.960;6.830;2023-04-03T04:29:36;-0.90;91.30
14733;DHT22;7457;50.960;6.830;2023-04-03T04:32:03;-1.00;91.40
14733;DHT22;7457;50.960;6.830;2023-04-03T04:34:29;-1.00;91.50
14733;DHT22;7457;50.960;6.830;2023-04-03T04:36:55;-1.00;91.60
14733;DHT22;7457;50.960;6.830;2023-04-03T04:39:21;-1.00;91.70
14733;DHT22;7457;50.960;6.830;2023-04-03T04:41:46;-1.00;91.80
14733;DHT22;7457;50.960;6.830;2023-04-03T04:44:12;-1.00;91.90
14733;DHT22;7457;50.960;6.830;2023-04-03T04:46:37;-1.00;92.00
14733;DHT22;7457;50.960;6.830;2023-04-03T04:49:03;-1.00;92.10
14733;DHT22;7457;50.960;6.830;2023-04-03T04:51:30;-1.00;92.20
14733;DHT22;7457;50.960;6.830;2023-04-03T04:53:55;-1.00;92.30
14733;DHT22;7457;50.960;6.830;2023-04-03T04:56:21;-1.00;92.40
14733;DHT22;7457;50.960;6.830;2023-04-03T04:58:47;-1.10;92.60
14733;DHT22;7457;50.960;6.830;2023-04-03T05:01:13;-1.10;92.80
14733;DHT22;7457;50.960;6.830;2023-04-03T05:03:38;-1.00;92.90
14733;DHT22;7457;50.960;6.830;2023-04-03T05:06:05;-1.00;93.10
14733;DHT22;7457;50.960;6.830;2023-04-03T05:08:30;-1.10;93.30
14733;DHT22;7457;50.960;6.830;2023-04-03T05:10:56;-1.00;93.50
14733;DHT22;7457;50.960;6.830;2023-04-03T05:13:22;-1.00;93.60
14733;DHT22;7457;50.960;6.830;2023-04-03T05:15:47;-1.00;93.80
14733;DHT22;7457;50.960;6.830;2023-04-03T05:18:13;-0.90;93.90
14733;DHT22;7457;50.960;6.830;2023-04-03T05:20:39;-0.90;94.00
14733;DHT22;7457;50.960;6.830;2023-04-03T05:23:05;-0.90;94.20
14733;DHT22;7457;50.960;6.830;2023-04-03T05:25:31;-0.90;94.20
14733;DHT22;7457;50.960;6.830;2023-04-03T05:27:57;-0.80;94.30
14733;DHT22;7457;50.960;6.830;2023-04-03T05:30:23;-0.80;94.50
14733;DHT22;7457;50.960;6.830;2023-04-03T05:32:48;-0.70;94.70
14733;DHT22;7457;50.960;6.830;2023-04-03T05:35:14;-0.70;94.90
14733;DHT22;7457;50.960;6.830;2023-04-03T05:37:40;-0.60;95.30
14733;DHT22;7457;50.960;6.830;2023-04-03T05:40:06;-0.50;95.70
14733;DHT22;7457;50.960;6.830;2023-04-03T05:42:33;-0.40;96.00
14733;DHT22;7457;50.960;6.830;2023-04-03T05:44:58;-0.20;96.20
14733;DHT22;7457;50.960;6.830;2023-04-03T05:47:24;0.00;96.90
14733;DHT22;7457;50.960;6.830;2023-04-03T05:49:50;0.30;97.00
14733;DHT22;7457;50.960;6.830;2023-04-03T05:52:25;1.00;97.10
14733;DHT22;7457;50.960;6.830;2023-04-03T05:54:52;1.90;95.90
14733;DHT22;7457;50.960;6.830;2023-04-03T05:57:18;2.70;94.00
14733;DHT22;7457;50.960;6.830;2023-04-03T05:59:45;3.30;93.60
14733;DHT22;7457;50.960;6.830;2023-04-03T06:02:16;4.20;93.20
14733;DHT22;7457;50.960;6.830;2023-04-03T06:04:42;5.20;92.80
14733;DHT22;7457;50.960;6.830;2023-04-03T06:07:13;6.20;90.70
14733;DHT22;7457;50.960;6.830;2023-04-03T06:09:39;6.20;88.60
14733;DHT22;7457;50.960;6.830;2023-04-03T06:12:05;6.50;88.60
14733;DHT22;7457;50.960;6.830;2023-04-03T06:14:31;7.00;88.30
14733;DHT22;7457;50.960;6.830;2023-04-03T06:16:56;8.40;88.40
14733;DHT22;7457;50.960;6.830;2023-04-03T06:19:22;9.60;87.00
14733;DHT22;7457;50.960;6.830;2023-04-03T06:21:48;10.80;83.80
14733;DHT22;7457;50.960;6.830;2023-04-03T06:24:18;11.30;81.50
14733;DHT22;7457;50.960;6.830;2023-04-03T06:26:45;11.80;79.90
14733;DHT22;7457;50.960;6.830;2023-04-03T06:29:11;12.20;78.90
14733;DHT22;7457;50.960;6.830;2023-04-03T06:31:37;12.60;77.60
14733;DHT22;7457;50.960;6.830;2023-04-03T06:34:03;12.80;76.30
14733;DHT22;7457;50.960;6.830;2023-04-03T06:36:29;13.10;75.00
14733;DHT22;7457;50.960;6.830;2023-04-03T06:38:55;13.50;74.30
14733;DHT22;7457;50.960;6.830;2023-04-03T06:41:21;13.60;73.00
14733;DHT22;7457;50.960;6.830;2023-04-03T06:43:47;13.30;73.40
14733;DHT22;7457;50.960;6.830;2023-04-03T06:46:17;13.40;71.70
14733;DHT22;7457;50.960;6.830;2023-04-03T06:48:43;13.10;70.80
14733;DHT22;7457;50.960;6.830;2023-04-03T06:51:36;13.00;69.90
14733;DHT22;7457;50.960;6.830;2023-04-03T06:54:03;12.40;67.80
14733;DHT22;7457;50.960;6.830;2023-04-03T06:56:29;11.70;68.30
14733;DHT22;7457;50.960;6.830;2023-04-03T06:58:56;11.00;68.70
14733;DHT22;7457;50.960;6.830;2023-04-03T07:01:24;10.40;66.50
14733;DHT22;7457;50.960;6.830;2023-04-03T07:03:52;9.70;66.50
14733;DHT22;7457;50.960;6.830;2023-04-03T07:06:18;9.00;67.50
14733;DHT22;7457;50.960;6.830;2023-04-03T07:08:45;8.70;68.90
14733;DHT22;7457;50.960;6.830;2023-04-03T07:11:11;8.60;68.50
14733;DHT22;7457;50.960;6.830;2023-04-03T07:13:40;8.40;66.80
14733;DHT22;7457;50.960;6.830;2023-04-03T07:16:07;7.90;67.60
14733;DHT22;7457;50.960;6.830;2023-04-03T07:18:34;7.70;68.70
14733;DHT22;7457;50.960;6.830;2023-04-03T07:21:00;7.50;69.30
14733;DHT22;7457;50.960;6.830;2023-04-03T07:23:26;7.40;69.10
14733;DHT22;7457;50.960;6.830;2023-04-03T07:25:52;7.40;69.60
14733;DHT22;7457;50.960;6.830;2023-04-03T07:28:19;7.40;68.20
14733;DHT22;7457;50.960;6.830;2023-04-03T07:30:50;7.30;68.50
14733;DHT22;7457;50.960;6.830;2023-04-03T07:33:18;7.70;68.80
14733;DHT22;7457;50.960;6.830;2023-04-03T07:35:44;8.40;67.80
14733;DHT22;7457;50.960;6.830;2023-04-03T07:38:11;8.90;65.30
14733;DHT22;7457;50.960;6.830;2023-04-03T07:40:39;9.10;64.00
14733;DHT22;7457;50.960;6.830;2023-04-03T07:43:05;9.10;63.70
14733;DHT22;7457;50.960;6.830;2023-04-03T07:45:34;9.10;63.30
14733;DHT22;7457;50.960;6.830;2023-04-03T07:48:02;9.20;64.70
14733;DHT22;7457;50.960;6.830;2023-04-03T07:50:30;9.60;65.60
14733;DHT22;7457;50.960;6.830;2023-04-03T07:52:57;10.10;63.80
14733;DHT22;7457;50.960;6.830;2023-04-03T07:55:24;10.30;62.00
14733;DHT22;7457;50.960;6.830;2023-04-03T07:57:49;10.20;61.50
14733;DHT22;7457;50.960;6.830;2023-04-03T08:00:16;10.20;60.90
14733;DHT22;7457;50.960;6.830;2023-04-03T08:02:43;10.10;61.00
14733;DHT22;7457;50.960;6.830;2023-04-03T08:05:10;10.10;60.00
14733;DHT22;7457;50.960;6.830;2023-04-03T08:07:37;10.00;61.00
14733;DHT22;7457;50.960;6.830;2023-04-03T08:10:03;9.90;61.20
14733;DHT22;7457;50.960;6.830;2023-04-03T08:12:29;10.00;60.80
14733;DHT22;7457;50.960;6.830;2023-04-03T08:14:57;10.20;60.70
14733;DHT22;7457;50.960;6.830;2023-04-03T08:17:24;10.30;59.00
14733;DHT22;7457;50.960;6.830;2023-04-03T08:19:50;10.50;59.70
14733;DHT22;7457;50.960;6.830;2023-04-03T08:22:16;10.80;59.70
14733;DHT22;7457;50.960;6.830;2023-04-03T08:24:41;11.10;58.90
14733;DHT22;7457;50.960;6.830;2023-04-03T08:27:07;11.40;58.90
14733;DHT22;7457;50.960;6.830;2023-04-03T08:29:34;11.50;59.00
14733;DHT22;7457;50.960;6.830;2023-04-03T08:32:00;11.70;58.00
14733;DHT22;7457;50.960;6.830;2023-04-03T08:34:25;11.80;58.20
14733;DHT22;7457;50.960;6.830;2023-04-03T08:36:51;12.10;57.40
14733;DHT22;7457;50.960;6.830;2023-04-03T08:39:17;12.10;54.00
14733;DHT22;7457;50.960;6.830;2023-04-03T08:41:44;12.00;54.00
14733;DHT22;7457;50.960;6.830;2023-04-03T08:44:25;12.00;54.00
14733;DHT22;7457;50.960;6.830;2023-04-03T08:47:23;12.00;54.80
14733;DHT22;7457;50.960;6.830;2023-04-03T08:50:04;12.30;54.00
14733;DHT22;7457;50.960;6.830;2023-04-03T08:52:40;12.40;52.80
14733;DHT22;7457;50.960;6.830;2023-04-03T08:55:28;12.40;52.30
14733;DHT22;7457;50.960;6.830;2023-04-03T08:58:06;12.40;52.10
14733;DHT22;7457;50.960;6.830;2023-04-03T09:03:13;12.20;51.80
14733;DHT22;7457;50.960;6.830;2023-04-03T09:08:21;11.30;50.90
14733;DHT22;7457;50.960;6.830;2023-04-03T09:10:49;10.70;51.50
14733;DHT22;7457;50.960;6.830;2023-04-03T09:13:38;10.50;52.60
14733;DHT22;7457;50.960;6.830;2023-04-03T09:16:13;10.40;52.10
14733;DHT22;7457;50.960;6.830;2023-04-03T09:18:45;10.30;52.10
14733;DHT22;7457;50.960;6.830;2023-04-03T09:21:16;10.20;51.80
14733;DHT22;7457;50.960;6.830;2023-04-03T09:23:50;9.90;52.10
14733;DHT22;7457;50.960;6.830;2023-04-03T09:26:19;9.60;52.70
14733;DHT22;7457;50.960;6.830;2023-04-03T09:28:47;9.50;53.20
14733;DHT22;7457;50.960;6.830;2023-04-03T09:31:21;9.50;53.10
14733;DHT22;7457;50.960;6.830;2023-04-03T09:33:50;9.70;53.00
14733;DHT22;7457;50.960;6.830;2023-04-03T09:36:57;9.90;53.30
14733;DHT22;7457;50.960;6.830;2023-04-03T09:39:28;10.10;52.80
14733;DHT22;7457;50.960;6.830;2023-04-03T09:42:00;10.30;53.30
14733;DHT22;7457;50.960;6.830;2023-04-03T09:44:32;10.60;52.90
14733;DHT22;7457;50.960;6.830;2023-04-03T09:46:58;10.70;51.50
14733;DHT22;7457;50.960;6.830;2023-04-03T09:49:25;10.70;51.50
14733;DHT22;7457;50.960;6.830;2023-04-03T09:51:51;10.70;50.20
14733;DHT22;7457;50.960;6.830;2023-04-03T09:54:37;10.80;50.20
14733;DHT22;7457;50.960;6.830;2023-04-03T09:57:10;10.90;50.70
14733;DHT22;7457;50.960;6.830;2023-04-03T09:59:45;11.10;51.00
14733;DHT22;7457;50.960;6.830;2023-04-03T10:04:46;11.80;50.30
14733;DHT22;7457;50.960;6.830;2023-04-03T10:07:32;12.30;50.50
14733;DHT22;7457;50.960;6.830;2023-04-03T10:10:00;12.90;49.30
14733;DHT22;7457;50.960;6.830;2023-04-03T10:12:27;13.20;48.50
14733;DHT22;7457;50.960;6.830;2023-04-03T10:27:55;13.30;42.40
14733;DHT22;7457;50.960;6.830;2023-04-03T10:33:46;13.60;41.70
14733;DHT22;7457;50.960;6.830;2023-04-03T10:41:50;13.40;40.60
14733;DHT22;7457;50.960;6.830;2023-04-03T10:47:27;13.90;41.80
14733;DHT22;7457;50.960;6.830;2023-04-03T10:57:53;13.30;39.50
14733;DHT22;7457;50.960;6.830;2023-04-03T11:00:30;13.50;40.40
14733;DHT22;7457;50.960;6.830;2023-04-03T11:03:27;13.60;39.70
14733;DHT22;7457;50.960;6.830;2023-04-03T11:05:53;13.80;39.80
14733;DHT22;7457;50.960;6.830;2023-04-03T11:08:28;13.80;38.90
14733;DHT22;7457;50.960;6.830;2023-04-03T11:11:03;13.60;38.60
14733;DHT22;7457;50.960;6.830;2023-04-03T11:13:40;13.50;39.10
14733;DHT22;7457;50.960;6.830;2023-04-03T11:16:08;13.30;38.50
14733;DHT22;7457;50.960;6.830;2023-04-03T11:19:03;13.30;38.50
14733;DHT22;7457;50.960;6.830;2023-04-03T11:21:35;13.50;40.00
14733;DHT22;7457;50.960;6.830;2023-04-03T11:24:05;13.80;38.90
14733;DHT22;7457;50.960;6.830;2023-04-03T11:26:40;13.80;38.70
14733;DHT22;7457;50.960;6.830;2023-04-03T11:29:15;14.00;39.70
14733;DHT22;7457;50.960;6.830;2023-04-03T11:34:35;14.60;40.20
14733;DHT22;7457;50.960;6.830;2023-04-03T11:40:47;14.50;39.00
14733;DHT22;7457;50.960;6.830;2023-04-03T11:43:06;14.20;40.20
14733;DHT22;7457;50.960;6.830;2023-04-03T11:45:37;14.30;40.80
14733;DHT22;7457;50.960;6.830;2023-04-03T11:50:49;14.60;40.40
14733;DHT22;7457;50.960;6.830;2023-04-03T11:58:20;14.50;38.70
14733;DHT22;7457;50.960;6.830;2023-04-03T12:01:08;14.40;37.90
14733;DHT22;7457;50.960;6.830;2023-04-03T12:03:58;14.30;38.30
14733;DHT22;7457;50.960;6.830;2023-04-03T12:08:58;14.00;38.20
14733;DHT22;7457;50.960;6.830;2023-04-03T12:11:29;13.80;39.20
14733;DHT22;7457;50.960;6.830;2023-04-03T12:24:36;14.40;38.10
14733;DHT22;7457;50.960;6.830;2023-04-03T12:27:29;14.10;37.10
14733;DHT22;7457;50.960;6.830;2023-04-03T12:35:21;12.80;37.10
14733;DHT22;7457;50.960;6.830;2023-04-03T12:48:38;11.50;37.70
14733;DHT22;7457;50.960;6.830;2023-04-03T12:51:05;11.30;38.00
14733;DHT22;7457;50.960;6.830;2023-04-03T12:53:33;11.20;38.70
14733;DHT22;7457;50.960;6.830;2023-04-03T12:56:24;11.10;38.30
14733;DHT22;7457;50.960;6.830;2023-04-03T12:58:53;11.00;38.60
14733;DHT22;7457;50.960;6.830;2023-04-03T13:01:22;11.00;38.70
14733;DHT22;7457;50.960;6.830;2023-04-03T13:03:58;11.00;38.80
14733;DHT22;7457;50.960;6.830;2023-04-03T13:06:43;11.00;39.00
14733;DHT22;7457;50.960;6.830;2023-04-03T13:09:28;11.00;38.80
14733;DHT22;7457;50.960;6.830;2023-04-03T13:12:13;10.90;37.90
14733;DHT22;7457;50.960;6.830;2023-04-03T13:14:39;10.80;38.30
14733;DHT22;7457;50.960;6.830;2023-04-03T13:17:16;10.80;38.30
14733;DHT22;7457;50.960;6.830;2023-04-03T13:19:43;10.70;37.10
14733;DHT22;7457;50.960;6.830;2023-04-03T13:24:51;10.40;38.10
14733;DHT22;7457;50.960;6.830;2023-04-03T13:27:17;10.40;39.10
14733;DHT22;7457;50.960;6.830;2023-04-03T13:29:44;10.40;38.80
14733;DHT22;7457;50.960;6.830;2023-04-03T13:32:21;10.50;39.10
14733;DHT22;7457;50.960;6.830;2023-04-03T13:34:48;10.50;39.00
14733;DHT22;7457;50.960;6.830;2023-04-03T13:37:40;10.60;38.40
14733;DHT22;7457;50.960;6.830;2023-04-03T13:40:18;10.60;38.20
14733;DHT22;7457;50.960;6.830;2023-04-03T13:42:44;10.50;38.70
14733;DHT22;7457;50.960;6.830;2023-04-03T13:47:43;10.30;38.20
14733;DHT22;7457;50.960;6.830;2023-04-03T13:53:08;10.50;39.10
14733;DHT22;7457;50.960;6.830;2023-04-03T13:55:48;10.50;39.30
14733;DHT22;7457;50.960;6.830;2023-04-03T13:58:22;10.50;39.50
14733;DHT22;7457;50.960;6.830;2023-04-03T14:06:17;10.30;38.80
14733;DHT22;7457;50.960;6.830;2023-04-03T14:08:44;10.30;39.20
14733;DHT22;7457;50.960;6.830;2023-04-03T14:11:20;10.30;39.20
14733;DHT22;7457;50.960;6.830;2023-04-03T14:13:47;10.20;39.50
14733;DHT22;7457;50.960;6.830;2023-04-03T14:16:18;10.20;39.90
14733;DHT22;7457;50.960;6.830;2023-04-03T14:18:46;10.20;40.10
14733;DHT22;7457;50.960;6.830;2023-04-03T14:21:13;10.20;40.30
14733;DHT22;7457;50.960;6.830;2023-04-03T14:23:39;10.10;40.70
14733;DHT22;7457;50.960;6.830;2023-04-03T14:26:24;10.20;40.60
14733;DHT22;7457;50.960;6.830;2023-04-03T14:28:53;10.10;40.90
14733;DHT22;7457;50.960;6.830;2023-04-03T14:31:19;10.20;41.00
14733;DHT22;7457;50.960;6.830;2023-04-03T14:33:46;10.20;41.20
14733;DHT22;7457;50.960;6.830;2023-04-03T14:36:21;10.20;41.20
14733;DHT22;7457;50.960;6.830;2023-04-03T14:38:48;10.20;41.40
14733;DHT22;7457;50.960;6.830;2023-04-03T14:41:17;10.20;41.40
14733;DHT22;7457;50.960;6.830;2023-04-03T14:43:44;10.20;41.10
14733;DHT22;7457;50.960;6.830;2023-04-03T14:46:28;10.10;41.20
14733;DHT22;7457;50.960;6.830;2023-04-03T14:48:54;10.10;41.30
14733;DHT22;7457;50.960;6.830;2023-04-03T14:51:19;10.00;41.20
14733;DHT22;7457;50.960;6.830;2023-04-03T14:53:46;9.90;41.10
14733;DHT22;7457;50.960;6.830;2023-04-03T14:56:28;9.80;41.60
14733;DHT22;7457;50.960;6.830;2023-04-03T14:59:00;9.80;41.90
14733;DHT22;7457;50.960;6.830;2023-04-03T15:01:27;9.80;42.10
14733;DHT22;7457;50.960;6.830;2023-04-03T15:03:53;9.90;42.50
14733;DHT22;7457;50.960;6.830;2023-04-03T15:06:19;9.90;42.10
14733;DHT22;7457;50.960;6.830;2023-04-03T15:08:47;9.90;42.40
14733;DHT22;7457;50.960;6.830;2023-04-03T15:11:13;9.90;42.50
14733;DHT22;7457;50.960;6.830;2023-04-03T15:13:40;9.80;41.90
14733;DHT22;7457;50.960;6.830;2023-04-03T15:16:17;9.80;41.90
14733;DHT22;7457;50.960;6.830;2023-04-03T15:18:44;9.70;42.00
14733;DHT22;7457;50.960;6.830;2023-04-03T15:21:10;9.70;41.80
14733;DHT22;7457;50.960;6.830;2023-04-03T15:23:36;9.70;42.00
14733;DHT22;7457;50.960;6.830;2023-04-03T15:26:02;9.70;41.80
14733;DHT22;7457;50.960;6.830;2023-04-03T15:28:34;9.60;42.20
14733;DHT22;7457;50.960;6.830;2023-04-03T15:31:00;9.70;42.80
14733;DHT22;7457;50.960;6.830;2023-04-03T15:33:27;9.70;42.70
14733;DHT22;7457;50.960;6.830;2023-04-03T15:35:52;9.70;42.00
14733;DHT22;7457;50.960;6.830;2023-04-03T15:38:18;9.70;42.40
14733;DHT22;7457;50.960;6.830;2023-04-03T15:40:44;9.70;42.30
14733;DHT22;7457;50.960;6.830;2023-04-03T15:43:12;9.70;42.60
14733;DHT22;7457;50.960;6.830;2023-04-03T15:45:38;9.60;42.90
14733;DHT22;7457;50.960;6.830;2023-04-03T15:48:05;9.60;43.00
14733;DHT22;7457;50.960;6.830;2023-04-03T15:50:32;9.60;43.00
14733;DHT22;7457;50.960;6.830;2023-04-03T15:52:58;9.60;43.00
14733;DHT22;7457;50.960;6.830;2023-04-03T15:55:28;9.60;42.90
14733;DHT22;7457;50.960;6.830;2023-04-03T15:57:55;9.50;42.30
14733;DHT22;7457;50.960;6.830;2023-04-03T16:00:22;9.50;42.40
14733;DHT22;7457;50.960;6.830;2023-04-03T16:02:51;9.50;42.80
14733;DHT22;7457;50.960;6.830;2023-04-03T16:05:20;9.50;43.00
14733;DHT22;7457;50.960;6.830;2023-04-03T16:07:46;9.40;43.00
14733;DHT22;7457;50.960;6.830;2023-04-03T16:10:13;9.40;43.10
14733;DHT22;7457;50.960;6.830;2023-04-03T16:12:39;9.40;43.30
14733;DHT22;7457;50.960;6.830;2023-04-03T16:15:05;9.40;43.20
14733;DHT22;7457;50.960;6.830;2023-04-03T16:17:33;9.30;43.40
14733;DHT22;7457;50.960;6.830;2023-04-03T16:19:59;9.30;43.40
14733;DHT22;7457;50.960;6.830;2023-04-03T16:22:26;9.20;43.60
14733;DHT22;7457;50.960;6.830;2023-04-03T16:24:52;9.30;43.40
14733;DHT22;7457;50.960;6.830;2023-04-03T16:27:18;9.20;43.50
14733;DHT22;7457;50.960;6.830;2023-04-03T16:29:44;9.20;43.70
14733;DHT22;7457;50.960;6.830;2023-04-03T16:32:09;9.20;43.70
14733;DHT22;7457;50.960;6.830;2023-04-03T16:34:35;9.10;43.70
14733;DHT22;7457;50.960;6.830;2023-04-03T16:37:01;9.10;43.70
14733;DHT22;7457;50.960;6.830;2023-04-03T16:39:27;9.00;43.70
14733;DHT22;7457;50.960;6.830;2023-04-03T16:41:52;9.00;43.70
14733;DHT22;7457;50.960;6.830;2023-04-03T16:44:18;9.00;43.90
14733;DHT22;7457;50.960;6.830;2023-04-03T16:46:44;8.90;44.00
14733;DHT22;7457;50.960;6.830;2023-04-03T16:49:10;8.90;44.10
14733;DHT22;7457;50.960;6.830;2023-04-03T16:51:35;8.80;44.10
14733;DHT22;7457;50.960;6.830;2023-04-03T16:54:01;8.80;44.20
14733;DHT22;7457;50.960;6.830;2023-04-03T16:56:27;8.80;44.40
14733;DHT22;7457;50.960;6.830;2023-04-03T16:58:53;8.70;44.40
14733;DHT22;7457;50.960;6.830;2023-04-03T17:01:20;8.60;44.60
14733;DHT22;7457;50.960;6.830;2023-04-03T17:03:46;8.50;44.70
14733;DHT22;7457;50.960;6.830;2023-04-03T17:06:17;8.50;44.70
14733;DHT22;7457;50.960;6.830;2023-04-03T17:08:45;8.50;44.60
14733;DHT22;7457;50.960;6.830;2023-04-03T17:11:12;8.40;44.60
14733;DHT22;7457;50.960;6.830;2023-04-03T17:13:37;8.40;44.50
14733;DHT22;7457;50.960;6.830;2023-04-03T17:16:05;8.40;44.70
14733;DHT22;7457;50.960;6.830;2023-04-03T17:18:33;8.30;44.70
14733;DHT22;7457;50.960;6.830;2023-04-03T17:21:00;8.30;44.60
14733;DHT22;7457;50.960;6.830;2023-04-03T17:23:27;8.20;44.80
14733;DHT22;7457;50.960;6.830;2023-04-03T17:25:56;8.20;44.90
14733;DHT22;7457;50.960;6.830;2023-04-03T17:28:22;8.10;45.00
14733;DHT22;7457;50.960;6.830;2023-04-03T17:30:56;8.10;45.10
14733;DHT22;7457;50.960;6.830;2023-04-03T17:33:23;8.00;45.10
14733;DHT22;7457;50.960;6.830;2023-04-03T17:35:49;8.00;45.30
14733;DHT22;7457;50.960;6.830;2023-04-03T17:38:15;7.90;45.40
14733;DHT22;7457;50.960;6.830;2023-04-03T17:40:41;7.80;45.50